createdAt,value
2017-10-05T00:01:57.608Z,12.30
2017-10-05T00:04:26.551Z,12.30
2017-10-05T00:06:54.730Z,12.30
2017-10-05T00:09:22.908Z,12.30
2017-10-05T00:11:51.132Z,12.30
2017-10-05T00:14:20.079Z,12.30
2017-10-05T00:16:48.640Z,12.30
2017-10-05T00:19:16.805Z,12.30
2017-10-05T00:21:45.024Z,12.30
2017-10-05T00:24:13.240Z,12.40
2017-10-05T00:26:41.408Z,12.30
2017-10-05T00:29:10.368Z,12.40
2017-10-05T00:31:38.567Z,12.40
2017-10-05T00:34:07.519Z,12.30
2017-10-05T00:36:35.709Z,12.30
2017-10-05T00:39:03.906Z,12.40
2017-10-05T00:41:32.847Z,12.30
2017-10-05T00:44:01.005Z,12.40
2017-10-05T00:46:29.221Z,12.30
2017-10-05T00:48:57.400Z,12.30
2017-10-05T00:51:25.601Z,12.40
2017-10-05T00:53:53.786Z,12.40
2017-10-05T00:56:21.977Z,12.40
2017-10-05T00:58:50.136Z,12.40
2017-10-05T01:01:18.325Z,12.40
2017-10-05T01:03:46.553Z,12.40
2017-10-05T01:06:15.494Z,12.40
2017-10-05T01:08:43.663Z,12.40
2017-10-05T01:11:11.858Z,12.40
2017-10-05T01:13:40.613Z,12.50
2017-10-05T01:16:08.877Z,12.50
2017-10-05T01:18:37.059Z,12.50
2017-10-05T01:21:05.225Z,12.50
2017-10-05T01:23:33.860Z,12.50
2017-10-05T01:26:02.200Z,12.60
2017-10-05T01:28:30.375Z,12.60
2017-10-05T01:30:58.576Z,12.60
2017-10-05T01:33:26.826Z,12.60
2017-10-05T01:35:55.006Z,12.60
2017-10-05T01:38:23.195Z,12.60
2017-10-05T01:40:51.402Z,12.60
2017-10-05T01:43:20.355Z,12.60
2017-10-05T01:45:48.526Z,12.60
2017-10-05T01:48:16.699Z,12.70
2017-10-05T01:50:44.877Z,12.60
2017-10-05T01:53:13.049Z,12.70
2017-10-05T01:55:41.224Z,12.70
2017-10-05T01:58:09.403Z,12.70
2017-10-05T02:00:37.860Z,12.70
2017-10-05T02:03:06.045Z,12.70
2017-10-05T02:05:34.229Z,12.70
2017-10-05T02:08:02.409Z,12.70
2017-10-05T02:10:30.586Z,12.70
2017-10-05T02:12:58.781Z,12.70
2017-10-05T02:15:27.733Z,12.70
2017-10-05T02:17:55.927Z,12.70
2017-10-05T02:20:24.096Z,12.70
2017-10-05T02:22:52.340Z,12.70
2017-10-05T02:25:20.515Z,12.70
2017-10-05T02:27:48.684Z,12.70
2017-10-05T02:30:16.876Z,12.80
2017-10-05T02:32:45.042Z,12.80
2017-10-05T02:35:13.248Z,12.80
2017-10-05T02:37:42.188Z,12.80
2017-10-05T02:40:10.385Z,12.80
2017-10-05T02:42:38.572Z,12.80
2017-10-05T02:45:06.734Z,12.80
2017-10-05T02:47:34.930Z,12.80
2017-10-05T02:50:03.122Z,12.80
2017-10-05T02:52:31.302Z,12.80
2017-10-05T02:54:59.498Z,12.90
2017-10-05T02:57:27.673Z,12.80
2017-10-05T02:59:55.842Z,12.90
2017-10-05T03:02:24.048Z,12.90
2017-10-05T03:04:52.246Z,12.90
2017-10-05T03:07:21.198Z,12.90
2017-10-05T03:09:49.436Z,12.90
2017-10-05T03:12:17.617Z,12.90
2017-10-05T03:14:45.813Z,12.90
2017-10-05T03:17:13.982Z,12.90
2017-10-05T03:19:42.185Z,12.90
2017-10-05T03:22:10.374Z,12.90
2017-10-05T03:24:38.558Z,12.80
2017-10-05T03:27:07.490Z,12.80
2017-10-05T03:29:35.713Z,12.70
2017-10-05T03:32:04.652Z,12.70
2017-10-05T03:34:32.827Z,12.70
2017-10-05T03:37:01.024Z,12.60
2017-10-05T03:39:29.177Z,12.70
2017-10-05T03:41:57.362Z,12.60
2017-10-05T03:44:26.343Z,12.60
2017-10-05T03:46:54.520Z,12.60
2017-10-05T03:49:22.714Z,12.60
2017-10-05T03:51:51.162Z,12.60
2017-10-05T03:54:19.332Z,12.70
2017-10-05T03:56:47.505Z,12.70
2017-10-05T03:59:15.690Z,12.70
2017-10-05T04:01:43.855Z,12.80
2017-10-05T04:04:12.048Z,12.80
2017-10-05T04:06:40.232Z,12.80
2017-10-05T04:09:08.406Z,12.80
2017-10-05T04:11:36.581Z,12.80
2017-10-05T04:14:04.768Z,12.90
2017-10-05T04:16:33.712Z,12.90
2017-10-05T04:19:02.654Z,12.90
2017-10-05T04:21:30.836Z,12.90
2017-10-05T04:23:59.037Z,12.90
2017-10-05T04:26:27.998Z,13.00
2017-10-05T04:28:56.176Z,13.00
2017-10-05T04:31:24.431Z,13.00
2017-10-05T04:33:52.613Z,13.10
2017-10-05T04:36:20.801Z,13.10
2017-10-05T04:38:48.993Z,13.00
2017-10-05T04:41:17.546Z,13.00
2017-10-05T04:43:45.736Z,13.10
2017-10-05T04:46:13.928Z,13.10
2017-10-05T04:48:42.513Z,13.10
2017-10-05T04:51:11.470Z,13.10
2017-10-05T04:53:39.646Z,13.10
2017-10-05T04:56:07.820Z,13.10
2017-10-05T04:58:36.052Z,13.10
2017-10-05T05:01:04.244Z,13.10
2017-10-05T05:03:32.707Z,13.10
2017-10-05T05:06:00.904Z,13.00
2017-10-05T05:08:29.152Z,13.00
2017-10-05T05:10:57.310Z,13.00
2017-10-05T05:13:25.477Z,13.00
2017-10-05T05:15:54.430Z,13.00
2017-10-05T05:18:22.606Z,12.90
2017-10-05T05:20:50.803Z,12.90
2017-10-05T05:23:19.737Z,12.80
2017-10-05T05:25:47.943Z,12.80
2017-10-05T05:28:16.123Z,12.90
2017-10-05T05:30:44.305Z,12.90
2017-10-05T05:33:12.473Z,12.90
2017-10-05T05:35:40.930Z,13.00
2017-10-05T05:38:09.092Z,13.00
2017-10-05T05:40:37.255Z,13.00
2017-10-05T05:43:05.468Z,13.00
2017-10-05T05:45:33.677Z,13.00
2017-10-05T05:48:01.864Z,12.90
2017-10-05T05:50:30.024Z,12.90
2017-10-05T05:52:58.538Z,12.90
2017-10-05T05:55:26.702Z,12.90
2017-10-05T05:57:54.882Z,12.90
2017-10-05T06:00:23.087Z,12.90
2017-10-05T06:02:51.284Z,12.90
2017-10-05T06:05:19.477Z,12.90
2017-10-05T06:07:47.641Z,12.90
2017-10-05T06:10:17.065Z,12.90
2017-10-05T06:12:45.223Z,12.90
2017-10-05T06:15:14.166Z,12.90
2017-10-05T06:17:42.353Z,12.90
2017-10-05T06:20:10.520Z,13.00
2017-10-05T06:22:39.451Z,13.00
2017-10-05T06:25:07.623Z,13.00
2017-10-05T06:27:36.565Z,13.10
2017-10-05T06:30:04.772Z,13.10
2017-10-05T06:32:33.693Z,13.20
2017-10-05T06:35:01.891Z,13.20
2017-10-05T06:37:30.075Z,13.30
2017-10-05T06:39:58.262Z,13.40
2017-10-05T06:42:26.419Z,13.50
2017-10-05T06:44:54.607Z,13.50
2017-10-05T06:47:22.913Z,13.60
2017-10-05T06:49:51.885Z,13.70
2017-10-05T06:52:20.112Z,13.70
2017-10-05T06:54:48.275Z,13.80
2017-10-05T06:57:16.476Z,13.90
2017-10-05T06:59:44.640Z,14.00
2017-10-05T07:02:12.825Z,14.10
2017-10-05T07:04:40.998Z,14.20
2017-10-05T07:07:09.180Z,14.20
2017-10-05T07:09:37.353Z,14.30
2017-10-05T07:12:05.531Z,14.40
2017-10-05T07:14:33.728Z,14.50
2017-10-05T07:17:02.665Z,14.60
2017-10-05T07:19:30.876Z,14.60
2017-10-05T07:21:59.050Z,14.70
2017-10-05T07:24:27.208Z,14.70
2017-10-05T07:26:55.397Z,14.60
2017-10-05T07:29:23.570Z,14.70
2017-10-05T07:31:51.786Z,14.70
2017-10-05T07:34:19.938Z,14.80
2017-10-05T07:36:48.905Z,14.90
2017-10-05T07:39:17.075Z,14.90
2017-10-05T07:41:45.263Z,14.90
2017-10-05T07:44:13.476Z,14.90
2017-10-05T07:46:41.672Z,14.90
2017-10-05T07:49:09.864Z,14.90
2017-10-05T07:51:38.022Z,15.00
2017-10-05T07:54:06.215Z,15.10
2017-10-05T07:56:34.391Z,15.10
2017-10-05T07:59:02.599Z,15.20
2017-10-05T08:01:31.527Z,15.40
2017-10-05T08:03:59.696Z,15.40
2017-10-05T08:06:27.860Z,15.50
2017-10-05T08:08:56.063Z,15.50
2017-10-05T08:11:24.247Z,15.60
2017-10-05T08:13:52.415Z,15.70
2017-10-05T08:16:20.587Z,15.80
2017-10-05T08:18:48.786Z,15.90
2017-10-05T08:21:17.717Z,16.10
2017-10-05T08:23:45.897Z,16.10
2017-10-05T08:26:14.069Z,16.20
2017-10-05T08:28:42.260Z,16.40
2017-10-05T08:31:10.453Z,16.50
2017-10-05T08:33:38.649Z,16.60
2017-10-05T08:36:07.569Z,16.90
2017-10-05T08:38:35.745Z,16.80
2017-10-05T08:41:03.912Z,16.90
2017-10-05T08:43:32.092Z,17.00
2017-10-05T08:46:00.250Z,17.10
2017-10-05T08:48:28.445Z,17.20
2017-10-05T08:50:56.605Z,17.30
2017-10-05T08:53:24.790Z,17.30
2017-10-05T08:55:52.951Z,17.40
2017-10-05T08:58:21.387Z,17.50
2017-10-05T09:00:49.542Z,17.60
2017-10-05T09:03:17.707Z,17.60
2017-10-05T09:05:45.885Z,17.70
2017-10-05T09:08:14.045Z,17.80
2017-10-05T09:10:42.225Z,17.80
2017-10-05T09:13:10.377Z,17.90
2017-10-05T09:15:38.592Z,18.00
2017-10-05T09:18:06.753Z,18.20
2017-10-05T09:20:35.706Z,18.30
2017-10-05T09:23:03.864Z,18.30
2017-10-05T09:25:32.032Z,18.40
2017-10-05T09:28:01.007Z,18.50
2017-10-05T09:30:29.182Z,18.50
2017-10-05T09:32:58.119Z,18.70
2017-10-05T09:35:26.286Z,18.70
2017-10-05T09:37:54.490Z,18.80
2017-10-05T09:40:22.645Z,18.80
2017-10-05T09:42:50.834Z,18.90
2017-10-05T09:45:19.000Z,18.90
2017-10-05T09:47:47.190Z,19.00
2017-10-05T09:50:15.362Z,19.00
2017-10-05T09:52:43.561Z,19.10
2017-10-05T09:55:12.498Z,19.20
2017-10-05T09:57:40.689Z,19.20
2017-10-05T10:00:08.880Z,19.30
2017-10-05T10:02:37.802Z,19.40
2017-10-05T10:05:05.961Z,19.40
2017-10-05T10:07:34.174Z,19.50
2017-10-05T10:10:02.425Z,19.50
2017-10-05T10:12:30.621Z,19.70
2017-10-05T10:14:58.783Z,19.80
2017-10-05T10:17:26.968Z,19.80
2017-10-05T10:19:55.132Z,19.80
2017-10-05T10:22:23.594Z,19.80
2017-10-05T10:24:51.800Z,19.90
2017-10-05T10:27:19.959Z,20.00
2017-10-05T10:29:48.135Z,20.10
2017-10-05T10:32:16.298Z,20.20
2017-10-05T10:34:45.254Z,20.20
2017-10-05T10:37:14.227Z,20.30
2017-10-05T10:39:42.442Z,20.20
2017-10-05T10:42:10.620Z,20.40
2017-10-05T10:44:38.876Z,20.40
2017-10-05T10:47:07.803Z,20.60
2017-10-05T10:49:35.980Z,20.60
2017-10-05T10:52:04.155Z,20.60
2017-10-05T10:54:32.327Z,20.60
2017-10-05T10:57:00.502Z,20.70
2017-10-05T10:59:28.661Z,20.70
2017-10-05T11:01:56.851Z,20.80
2017-10-05T11:04:25.023Z,20.80
2017-10-05T11:06:53.196Z,20.90
2017-10-05T11:09:21.391Z,20.80
2017-10-05T11:11:49.574Z,20.80
2017-10-05T11:14:17.740Z,20.90
2017-10-05T11:16:45.919Z,21.00
2017-10-05T11:19:14.097Z,21.10
2017-10-05T11:21:42.276Z,21.30
2017-10-05T11:24:10.474Z,21.20
2017-10-05T11:26:39.422Z,21.30
2017-10-05T11:29:07.955Z,21.30
2017-10-05T11:31:36.158Z,21.30
2017-10-05T11:34:04.369Z,21.30
2017-10-05T11:36:32.533Z,21.30
2017-10-05T11:39:00.699Z,21.30
2017-10-05T11:41:28.875Z,21.30
2017-10-05T11:43:57.034Z,21.30
2017-10-05T11:46:25.231Z,21.40
2017-10-05T11:48:53.401Z,21.50
2017-10-05T11:51:21.589Z,21.50
2017-10-05T11:53:50.525Z,21.60
2017-10-05T11:56:18.683Z,21.60
2017-10-05T11:58:46.853Z,21.60
2017-10-05T12:01:15.026Z,21.70
2017-10-05T12:03:43.522Z,21.70
2017-10-05T12:06:11.798Z,21.60
2017-10-05T12:08:40.259Z,21.60
2017-10-05T12:11:08.412Z,21.60
2017-10-05T12:13:37.368Z,21.70
2017-10-05T12:16:05.539Z,21.60
2017-10-05T12:18:33.825Z,21.70
2017-10-05T12:21:02.007Z,21.90
2017-10-05T12:23:30.162Z,21.90
2017-10-05T12:25:58.339Z,21.90
2017-10-05T12:28:26.509Z,21.90
2017-10-05T12:30:54.682Z,22.10
2017-10-05T12:33:22.857Z,22.30
2017-10-05T12:35:51.342Z,22.40
2017-10-05T12:38:19.514Z,22.50
2017-10-05T12:40:47.690Z,22.80
2017-10-05T12:43:15.858Z,23.30
2017-10-05T12:45:44.028Z,23.60
2017-10-05T12:48:12.220Z,24.00
2017-10-05T12:50:40.395Z,23.70
2017-10-05T12:53:08.576Z,23.70
2017-10-05T12:55:37.503Z,23.40
2017-10-05T12:58:05.678Z,23.40
2017-10-05T13:00:33.853Z,23.20
2017-10-05T13:03:02.046Z,23.30
2017-10-05T13:05:30.224Z,23.50
2017-10-05T13:07:58.378Z,23.60
2017-10-05T13:10:26.574Z,24.00
2017-10-05T13:12:54.753Z,23.50
2017-10-05T13:15:22.959Z,23.60
2017-10-05T13:17:51.900Z,23.70
2017-10-05T13:20:20.077Z,23.70
2017-10-05T13:22:48.248Z,23.80
2017-10-05T13:25:16.465Z,24.10
2017-10-05T13:27:45.493Z,24.70
2017-10-05T13:30:13.662Z,24.60
2017-10-05T13:32:41.840Z,24.80
2017-10-05T13:35:10.000Z,24.50
2017-10-05T13:37:38.178Z,24.60
2017-10-05T13:40:06.353Z,24.60
2017-10-05T13:42:34.532Z,24.20
2017-10-05T13:45:02.696Z,24.10
2017-10-05T13:47:31.213Z,24.10
2017-10-05T13:49:59.384Z,24.30
2017-10-05T13:52:27.536Z,23.70
2017-10-05T13:54:55.714Z,23.90
2017-10-05T13:57:23.924Z,24.00
2017-10-05T13:59:52.158Z,23.70
2017-10-05T14:02:20.336Z,23.30
2017-10-05T14:04:48.523Z,23.30
2017-10-05T14:07:17.483Z,24.50
2017-10-05T14:09:45.682Z,24.40
2017-10-05T14:12:13.867Z,24.50
2017-10-05T14:14:42.022Z,24.70
2017-10-05T14:17:10.217Z,25.10
2017-10-05T14:19:38.384Z,25.60
2017-10-05T14:22:06.558Z,26.10
2017-10-05T14:24:34.734Z,25.90
2017-10-05T14:27:02.918Z,25.60
2017-10-05T14:29:31.075Z,25.40
2017-10-05T14:31:59.271Z,25.30
2017-10-05T14:34:27.469Z,25.90
2017-10-05T14:36:56.416Z,25.60
2017-10-05T14:39:25.385Z,26.00
2017-10-05T14:41:53.543Z,26.10
2017-10-05T14:44:21.728Z,26.40
2017-10-05T14:46:49.896Z,26.00
2017-10-05T14:49:18.087Z,25.90
2017-10-05T14:51:46.249Z,24.80
2017-10-05T14:54:14.832Z,24.30
2017-10-05T14:56:43.016Z,23.50
2017-10-05T14:59:11.271Z,23.50
2017-10-05T15:01:39.463Z,22.90
2017-10-05T15:04:07.616Z,22.40
2017-10-05T15:06:35.820Z,21.90
2017-10-05T15:09:03.985Z,21.40
2017-10-05T15:11:32.170Z,21.10
2017-10-05T15:14:01.114Z,20.80
2017-10-05T15:16:29.324Z,20.80
2017-10-05T15:18:58.269Z,20.60
2017-10-05T15:21:27.197Z,20.40
2017-10-05T15:23:55.378Z,20.40
2017-10-05T15:26:23.544Z,20.20
2017-10-05T15:28:51.760Z,20.10
2017-10-05T15:31:19.966Z,20.00
2017-10-05T15:33:48.172Z,20.00
2017-10-05T15:36:17.103Z,19.80
2017-10-05T15:38:46.996Z,19.80
2017-10-05T15:41:15.179Z,19.70
2017-10-05T15:43:43.455Z,19.70
2017-10-05T15:46:11.672Z,19.70
2017-10-05T15:48:39.846Z,19.60
2017-10-05T15:51:08.034Z,19.50
2017-10-05T15:53:36.239Z,19.50
2017-10-05T15:56:04.425Z,19.40
2017-10-05T15:58:33.376Z,19.30
2017-10-05T16:01:01.851Z,19.30
2017-10-05T16:03:30.100Z,19.10
2017-10-05T16:05:59.033Z,18.60
2017-10-05T16:08:27.256Z,18.60
2017-10-05T16:10:56.194Z,18.50
2017-10-05T16:13:24.426Z,18.50
2017-10-05T16:15:52.637Z,18.20
2017-10-05T16:18:20.828Z,18.00
2017-10-05T16:20:49.009Z,18.00
2017-10-05T16:23:17.198Z,18.00
2017-10-05T16:25:45.398Z,17.90
2017-10-05T16:28:14.368Z,18.00
2017-10-05T16:30:42.559Z,18.00
2017-10-05T16:33:10.745Z,18.00
2017-10-05T16:35:39.534Z,18.00
2017-10-05T16:38:07.719Z,18.00
2017-10-05T16:40:35.901Z,17.90
2017-10-05T16:43:04.862Z,17.80
2017-10-05T16:45:33.049Z,17.80
2017-10-05T16:48:01.237Z,17.70
2017-10-05T16:50:30.353Z,17.70
2017-10-05T16:52:58.577Z,17.70
2017-10-05T16:55:26.753Z,17.60
2017-10-05T16:57:54.944Z,17.60
2017-10-05T17:00:23.888Z,17.40
2017-10-05T17:02:52.144Z,17.40
2017-10-05T17:05:20.383Z,17.40
2017-10-05T17:07:49.344Z,17.20
2017-10-05T17:10:17.573Z,17.20
2017-10-05T17:12:45.804Z,17.20
2017-10-05T17:15:13.990Z,17.10
2017-10-05T17:17:42.193Z,17.10
2017-10-05T17:20:11.148Z,17.00
2017-10-05T17:22:39.336Z,17.00
2017-10-05T17:25:07.517Z,16.90
2017-10-05T17:27:36.790Z,16.80
2017-10-05T17:30:05.018Z,16.80
2017-10-05T17:32:33.200Z,16.80
2017-10-05T17:35:02.157Z,16.80
2017-10-05T17:37:31.113Z,16.70
2017-10-05T17:39:59.372Z,16.70
2017-10-05T17:42:28.461Z,16.70
2017-10-05T17:44:56.656Z,16.60
2017-10-05T17:47:25.023Z,16.50
2017-10-05T17:49:53.262Z,16.50
2017-10-05T17:52:21.589Z,16.40
2017-10-05T17:54:50.603Z,16.10
2017-10-05T17:57:19.636Z,16.00
2017-10-05T17:59:48.717Z,15.80
2017-10-05T18:02:17.734Z,15.80
2017-10-05T18:04:45.976Z,15.50
2017-10-05T18:07:14.253Z,15.20
2017-10-05T18:09:42.441Z,14.70
2017-10-05T18:12:10.686Z,14.30
2017-10-05T18:14:38.914Z,14.00
2017-10-05T18:17:07.409Z,13.60
2017-10-05T18:19:35.654Z,13.30
2017-10-05T18:22:03.841Z,13.20
2017-10-05T18:24:32.735Z,13.10
2017-10-05T18:27:00.937Z,13.10
2017-10-05T18:29:29.909Z,13.00
2017-10-05T18:31:58.171Z,12.90
2017-10-05T18:34:26.386Z,12.90
2017-10-05T18:36:54.885Z,12.80
2017-10-05T18:39:23.080Z,12.80
2017-10-05T18:41:51.609Z,12.70
2017-10-05T18:44:19.910Z,12.80
2017-10-05T18:46:48.401Z,12.80
2017-10-05T18:49:16.642Z,12.70
2017-10-05T18:51:45.928Z,12.60
2017-10-05T18:54:14.554Z,12.70
2017-10-05T18:56:43.207Z,12.70
2017-10-05T18:59:11.530Z,12.70
2017-10-05T19:01:39.857Z,12.70
2017-10-05T19:04:08.182Z,12.70
2017-10-05T19:06:36.572Z,12.70
2017-10-05T19:09:05.603Z,12.70
2017-10-05T19:11:33.879Z,12.70
2017-10-05T19:14:02.062Z,12.70
2017-10-05T19:16:30.269Z,12.70
2017-10-05T19:18:58.518Z,12.70
2017-10-05T19:21:26.728Z,12.60
2017-10-05T19:23:55.237Z,12.40
2017-10-05T19:26:23.443Z,11.80
2017-10-05T19:28:51.667Z,11.50
2017-10-05T19:31:19.914Z,11.10
2017-10-05T19:33:49.126Z,10.80
2017-10-05T19:36:17.345Z,10.70
2017-10-05T19:38:45.544Z,10.50
2017-10-05T19:41:14.074Z,10.50
2017-10-05T19:43:43.089Z,10.50
2017-10-05T19:46:13.090Z,10.40
2017-10-05T19:48:41.432Z,10.40
2017-10-05T19:51:09.656Z,10.40
2017-10-05T19:53:38.647Z,10.50
2017-10-05T19:56:07.118Z,10.60
2017-10-05T19:58:35.370Z,10.60
2017-10-05T20:01:03.564Z,10.60
2017-10-05T20:03:32.015Z,10.70
2017-10-05T20:06:00.276Z,10.70
2017-10-05T20:08:29.233Z,10.60
2017-10-05T20:10:57.538Z,10.60
2017-10-05T20:13:32.427Z,10.60
2017-10-05T20:19:27.280Z,10.60
2017-10-05T20:21:56.976Z,10.60
2017-10-05T20:24:30.817Z,10.60
2017-10-05T20:27:04.493Z,10.70
2017-10-05T20:32:46.104Z,10.70
2017-10-05T20:35:14.289Z,10.70
2017-10-05T20:37:42.772Z,10.80
2017-10-05T20:40:11.729Z,10.90
2017-10-05T20:42:40.087Z,10.90
2017-10-05T20:45:08.347Z,11.00
2017-10-05T20:47:36.535Z,11.00
2017-10-05T20:50:04.719Z,11.00
2017-10-05T20:52:33.948Z,11.00
2017-10-05T20:55:02.146Z,11.00
2017-10-05T20:57:31.290Z,11.10
2017-10-05T20:59:59.668Z,11.10
2017-10-05T21:02:27.893Z,11.10
2017-10-05T21:04:56.068Z,11.10
2017-10-05T21:07:24.309Z,11.00
2017-10-05T21:09:52.503Z,11.00
2017-10-05T21:12:20.703Z,11.00
2017-10-05T21:14:48.873Z,11.00
2017-10-05T21:17:17.099Z,11.00
2017-10-05T21:19:45.362Z,11.10
2017-10-05T21:22:15.136Z,11.10
2017-10-05T21:24:44.112Z,11.10
2017-10-05T21:27:12.408Z,11.10
2017-10-05T21:29:40.588Z,10.90
2017-10-05T21:32:08.797Z,10.90
2017-10-05T21:34:37.914Z,10.90
2017-10-05T21:37:06.098Z,10.80
2017-10-05T21:39:34.299Z,10.80
2017-10-05T21:42:04.006Z,10.80
2017-10-05T21:44:32.569Z,10.80
2017-10-05T21:47:00.784Z,10.80
2017-10-05T21:49:29.052Z,10.80
2017-10-05T21:51:59.566Z,10.70
2017-10-05T21:54:28.615Z,10.80
2017-10-05T21:56:56.870Z,10.80
2017-10-05T21:59:25.059Z,10.70
2017-10-05T22:01:54.242Z,10.60
2017-10-05T22:04:22.455Z,10.60
2017-10-05T22:06:50.914Z,10.60
2017-10-05T22:09:19.099Z,10.50
2017-10-05T22:11:47.297Z,10.50
2017-10-05T22:14:15.511Z,10.50
2017-10-05T22:16:43.714Z,10.40
2017-10-05T22:19:11.886Z,10.30
2017-10-05T22:21:40.346Z,10.40
2017-10-05T22:24:08.515Z,10.40
2017-10-05T22:26:36.726Z,10.50
2017-10-05T22:29:04.952Z,10.50
2017-10-05T22:31:33.400Z,10.50
2017-10-05T22:34:02.345Z,10.50
2017-10-05T22:36:30.516Z,10.40
2017-10-05T22:38:59.013Z,10.50
2017-10-05T22:41:27.187Z,10.50
2017-10-05T22:43:55.342Z,10.50
2017-10-05T22:46:23.501Z,10.60
2017-10-05T22:48:51.670Z,10.60
2017-10-05T22:51:19.858Z,10.60
2017-10-05T22:53:48.064Z,10.60
2017-10-05T22:56:16.261Z,10.50
2017-10-05T22:58:44.426Z,10.60
2017-10-05T23:01:13.799Z,10.70
2017-10-05T23:03:42.022Z,10.60
2017-10-05T23:06:12.188Z,10.70
2017-10-05T23:08:40.392Z,10.70
2017-10-05T23:11:08.553Z,10.70
2017-10-05T23:13:36.741Z,10.70
2017-10-05T23:16:04.915Z,10.70
2017-10-05T23:18:33.090Z,10.60
2017-10-05T23:21:01.284Z,10.60
2017-10-05T23:23:30.207Z,10.70
2017-10-05T23:25:58.420Z,10.70
2017-10-05T23:28:27.266Z,10.70
2017-10-05T23:30:55.465Z,10.60
2017-10-05T23:33:23.633Z,10.50
2017-10-05T23:35:51.830Z,10.50
2017-10-05T23:38:20.007Z,10.50
2017-10-05T23:40:48.193Z,10.50
2017-10-05T23:43:17.142Z,10.50
2017-10-05T23:45:45.303Z,10.50
2017-10-05T23:48:13.484Z,10.60
2017-10-05T23:50:41.665Z,10.60
2017-10-05T23:53:10.442Z,10.60
2017-10-05T23:55:38.596Z,10.50
2017-10-05T23:58:06.769Z,10.50
